Time;durP1;ratioP1;P1;durP2;ratioP2;P2;SDS_P1;SDS_P2;PMS_P1;PMS_P2;Temp;Humidity;BMP_temperature;BMP_pressure;BME280_temperature;BME280_humidity;BME280_pressure;Samples;Min_cycle;Max_cycle;Signal;HPM_P1;HPM_P2
2020/12/14 00:00:46;;;;;;;18.05;8.38;;;;;;;3.32;69.05;100600.98;1721833;82;21779;-59
2020/12/14 00:03:14;;;;;;;13.88;7.60;;;;;;;3.28;69.13;100603.81;1727929;82;21189;-59
2020/12/14 00:05:41;;;;;;;12.82;7.22;;;;;;;3.28;69.14;100605.95;1727553;82;21691;-59
2020/12/14 00:08:09;;;;;;;13.40;7.08;;;;;;;3.37;68.96;100606.44;1657874;85;21213;-59
2020/12/14 00:10:38;;;;;;;14.00;6.72;;;;;;;3.42;68.88;100602.70;1685223;84;22225;-59
2020/12/14 00:13:06;;;;;;;16.65;8.10;;;;;;;3.46;68.87;100604.70;1685858;84;21133;-59
2020/12/14 00:15:33;;;;;;;12.63;7.08;;;;;;;3.43;68.92;100606.13;1725408;82;23612;-59
2020/12/14 00:18:01;;;;;;;14.75;7.33;;;;;;;3.41;69.00;100608.80;1728192;82;21202;-59
2020/12/14 00:20:28;;;;;;;11.48;6.87;;;;;;;3.39;69.11;100605.91;1722821;82;21208;-58
2020/12/14 00:22:56;;;;;;;15.40;7.55;;;;;;;3.38;69.10;100597.70;1729451;82;21176;-58
2020/12/14 00:25:23;;;;;;;13.00;7.30;;;;;;;3.36;69.15;100610.78;1727682;82;21145;-58
2020/12/14 00:27:51;;;;;;;13.20;7.67;;;;;;;3.31;69.18;100608.85;1726694;82;21275;-58
2020/12/14 00:30:19;;;;;;;14.78;7.67;;;;;;;3.29;69.20;100608.09;1725844;82;21200;-59
2020/12/14 00:32:46;;;;;;;14.30;6.58;;;;;;;3.30;69.17;100616.28;1727738;82;21188;-58
2020/12/14 00:35:14;;;;;;;11.18;6.62;;;;;;;3.40;69.04;100611.04;1729402;82;21655;-58
2020/12/14 00:37:41;;;;;;;13.58;5.95;;;;;;;3.48;68.90;100610.66;1731561;82;21180;-58
2020/12/14 00:40:09;;;;;;;13.22;6.50;;;;;;;3.54;68.84;100609.09;1732606;82;21368;-59
2020/12/14 00:42:43;;;;;;;12.70;7.70;;;;;;;3.54;68.77;100612.98;1729247;82;21185;-58
2020/12/14 00:45:24;;;;;;;15.45;8.55;;;;;;;3.52;68.88;100610.45;1788202;79;22805;-59
2020/12/14 00:47:52;;;;;;;14.35;9.08;;;;;;;3.50;68.90;100616.20;1777230;80;21123;-58
2020/12/14 00:50:21;;;;;;;16.97;8.63;;;;;;;3.47;68.88;100615.50;1784918;80;23617;-59
2020/12/14 00:52:48;;;;;;;16.45;8.25;;;;;;;3.43;68.94;100608.73;1772426;80;21171;-58
2020/12/14 00:55:16;;;;;;;12.70;7.75;;;;;;;3.38;69.01;100614.17;1765154;80;21200;-59
2020/12/14 00:57:47;;;;;;;11.95;7.17;;;;;;;3.35;69.07;100613.02;1765518;80;21596;-59
2020/12/14 01:00:14;;;;;;;13.72;7.12;;;;;;;3.28;69.14;100603.34;1770551;80;21130;-59
2020/12/14 01:02:43;;;;;;;15.93;7.47;;;;;;;3.32;69.13;100609.25;1778985;78;21545;-59
2020/12/14 01:05:11;;;;;;;10.95;6.28;;;;;;;3.42;68.94;100606.60;1775772;78;21076;-59
2020/12/14 01:07:38;;;;;;;16.75;7.15;;;;;;;3.50;68.89;100605.79;1770145;78;21622;-60
2020/12/14 01:10:06;;;;;;;17.48;8.30;;;;;;;3.56;68.73;100604.64;1769040;80;21203;-59
2020/12/14 01:12:35;;;;;;;15.43;8.28;;;;;;;3.56;68.76;100599.91;1770455;79;21139;-59
2020/12/14 01:15:07;;;;;;;13.80;8.48;;;;;;;3.58;68.84;100605.88;1773570;79;21133;-59
2020/12/14 01:17:36;;;;;;;14.00;8.90;;;;;;;3.61;68.79;100611.77;1777829;80;21189;-59
2020/12/14 01:20:06;;;;;;;18.82;8.88;;;;;;;3.59;68.75;100609.71;1716531;81;21673;-59
2020/12/14 01:22:37;;;;;;;15.35;9.30;;;;;;;3.58;68.72;100611.08;1733291;82;21109;-59
2020/12/14 01:25:04;;;;;;;14.68;8.48;;;;;;;3.50;68.68;100607.09;1729815;82;21149;-59
2020/12/14 01:27:31;;;;;;;18.23;9.60;;;;;;;3.42;68.73;100613.11;1717335;83;21160;-59
2020/12/14 01:29:59;;;;;;;17.80;8.83;;;;;;;3.29;68.90;100605.02;1700690;83;21668;-59
2020/12/14 01:32:26;;;;;;;15.40;7.72;;;;;;;3.27;69.01;100610.75;1734090;82;22013;-59
2020/12/14 01:34:55;;;;;;;14.98;8.08;;;;;;;3.37;68.87;100604.67;1714642;83;21081;-59
2020/12/14 01:37:22;;;;;;;17.62;8.95;;;;;;;3.42;68.79;100608.38;1701761;83;21164;-59
2020/12/14 01:39:49;;;;;;;18.82;10.00;;;;;;;3.46;68.83;100599.49;1727893;81;21345;-59
2020/12/14 01:42:22;;;;;;;19.52;9.70;;;;;;;3.47;68.93;100603.33;1729204;81;21247;-59
2020/12/14 01:44:48;;;;;;;17.55;10.60;;;;;;;3.45;68.94;100603.86;1724758;82;21585;-59
2020/12/14 01:47:27;;;;;;;19.30;10.20;;;;;;;3.45;69.04;100603.03;1723186;82;21200;-59
2020/12/14 01:50:06;;;;;;;14.00;9.28;;;;;;;3.49;69.04;100597.59;1871364;75;22331;-59
2020/12/14 01:52:34;;;;;;;20.48;10.43;;;;;;;3.45;68.96;100598.66;1851757;75;22491;-58
2020/12/14 01:55:02;;;;;;;16.10;10.05;;;;;;;3.37;68.91;100595.57;1833521;77;21178;-58
2020/12/14 01:57:30;;;;;;;18.23;10.55;;;;;;;3.27;69.04;100596.45;1852004;75;21115;-58
2020/12/14 01:59:57;;;;;;;18.00;10.05;;;;;;;3.18;69.25;100594.28;1840547;75;21166;-59
2020/12/14 02:02:25;;;;;;;15.60;9.05;;;;;;;3.16;69.28;100593.05;1853557;75;21167;-58
2020/12/14 02:04:53;;;;;;;18.55;9.15;;;;;;;3.25;69.16;100595.69;1851451;77;21195;-58
2020/12/14 02:07:20;;;;;;;21.25;9.83;;;;;;;3.36;69.15;100596.47;1850261;75;23660;-58
2020/12/14 02:09:47;;;;;;;17.67;9.45;;;;;;;3.44;69.10;100596.13;1840145;75;21170;-58
2020/12/14 02:12:15;;;;;;;18.90;9.15;;;;;;;3.47;69.06;100596.82;1837932;75;21168;-58
2020/12/14 02:14:42;;;;;;;16.55;9.83;;;;;;;3.48;69.02;100598.52;1842517;76;21155;-59
2020/12/14 02:17:10;;;;;;;18.35;10.05;;;;;;;3.48;68.95;100601.12;1847984;75;21611;-59
2020/12/14 02:19:38;;;;;;;18.05;9.65;;;;;;;3.47;68.95;100598.59;1843215;75;21350;-59
2020/12/14 02:22:05;;;;;;;17.23;10.45;;;;;;;3.43;68.93;100596.59;1845448;75;21167;-59
2020/12/14 02:24:33;;;;;;;21.07;11.15;;;;;;;3.39;68.94;100599.41;1846210;77;21195;-59
2020/12/14 02:27:01;;;;;;;19.95;10.58;;;;;;;3.33;69.03;100597.47;1821299;77;21822;-59
2020/12/14 02:29:28;;;;;;;19.20;10.50;;;;;;;3.28;69.07;100599.91;1821040;77;21529;-58
2020/12/14 02:31:56;;;;;;;16.60;9.15;;;;;;;3.27;69.05;100598.22;1819218;77;21288;-59
2020/12/14 02:34:24;;;;;;;15.28;8.53;;;;;;;3.37;68.90;100599.94;1813405;78;21183;-58
2020/12/14 02:36:51;;;;;;;16.62;9.38;;;;;;;3.44;68.73;100593.53;1816258;77;21151;-58
2020/12/14 02:39:19;;;;;;;18.52;8.85;;;;;;;3.45;68.67;100597.36;1819334;77;21174;-59
2020/12/14 02:41:46;;;;;;;17.65;8.25;;;;;;;3.44;68.72;100593.53;1817211;78;21595;-59
2020/12/14 02:44:14;;;;;;;18.40;9.78;;;;;;;3.44;68.79;100600.03;1817059;77;21643;-58
2020/12/14 02:46:41;;;;;;;14.83;9.50;;;;;;;3.41;68.79;100593.20;1821133;77;21163;-59
2020/12/14 02:49:09;;;;;;;17.95;9.35;;;;;;;3.42;68.75;100596.66;1820188;78;21167;-59
2020/12/14 02:51:36;;;;;;;20.97;9.83;;;;;;;3.38;68.82;100601.61;1821034;77;21175;-59
2020/12/14 02:54:04;;;;;;;18.15;9.13;;;;;;;3.34;68.85;100597.01;1821042;78;21592;-59
2020/12/14 02:56:31;;;;;;;17.20;9.98;;;;;;;3.32;68.90;100601.45;1816527;77;21454;-59
2020/12/14 02:58:59;;;;;;;13.25;8.63;;;;;;;3.26;68.96;100601.28;1821554;78;21199;-59
2020/12/14 03:01:27;;;;;;;17.30;9.35;;;;;;;3.29;68.91;100601.58;1824048;77;21183;-59
2020/12/14 03:03:55;;;;;;;15.70;9.83;;;;;;;3.37;68.70;100596.87;1775332;79;21183;-59
2020/12/14 03:06:22;;;;;;;15.65;8.50;;;;;;;3.41;68.62;100593.20;1777191;80;21147;-59
2020/12/14 03:08:50;;;;;;;14.87;8.40;;;;;;;3.45;68.59;100599.13;1780677;80;21404;-59
2020/12/14 03:11:18;;;;;;;16.32;9.73;;;;;;;3.44;68.58;100599.56;1772229;79;21179;-59
2020/12/14 03:13:46;;;;;;;14.43;9.30;;;;;;;3.39;68.62;100597.64;1779888;79;21208;-59
2020/12/14 03:16:13;;;;;;;18.67;10.75;;;;;;;3.35;68.77;100594.80;1729717;81;21618;-59
2020/12/14 03:18:41;;;;;;;17.27;10.25;;;;;;;3.32;68.86;100594.47;1780595;79;21719;-59
2020/12/14 03:21:08;;;;;;;16.62;10.50;;;;;;;3.30;68.91;100599.37;1783211;79;21464;-59
2020/12/14 03:23:36;;;;;;;18.85;9.45;;;;;;;3.26;68.97;100597.81;1775061;79;21225;-59
2020/12/14 03:26:04;;;;;;;16.82;9.75;;;;;;;3.21;69.04;100599.79;1776120;79;21173;-59
2020/12/14 03:28:31;;;;;;;14.23;8.38;;;;;;;3.13;69.06;100598.39;1767879;80;21163;-59
2020/12/14 03:30:59;;;;;;;15.75;8.03;;;;;;;3.16;69.10;100602.16;1774195;80;21179;-59
2020/12/14 03:33:27;;;;;;;15.58;7.33;;;;;;;3.26;68.94;100601.28;1747034;80;21398;-59
2020/12/14 03:35:55;;;;;;;12.33;6.75;;;;;;;3.34;68.79;100602.21;1778316;79;21555;-59
2020/12/14 03:38:22;;;;;;;12.88;7.08;;;;;;;3.37;68.77;100603.84;1724123;80;21169;-59
2020/12/14 03:40:50;;;;;;;15.05;8.43;;;;;;;3.36;68.83;100609.48;1775729;79;21642;-59
2020/12/14 03:43:18;;;;;;;16.23;8.15;;;;;;;3.37;68.83;100611.64;1777663;79;21101;-59
2020/12/14 03:45:48;;;;;;;16.48;8.40;;;;;;;3.36;68.82;100612.08;1753280;81;21302;-59
2020/12/14 03:48:18;;;;;;;18.57;9.35;;;;;;;3.33;68.86;100616.15;1770860;79;21193;-59
2020/12/14 03:50:47;;;;;;;14.15;8.10;;;;;;;3.30;68.83;100612.38;1780199;80;21251;-59
2020/12/14 03:53:14;;;;;;;14.65;8.98;;;;;;;3.23;68.91;100611.82;1779885;79;21121;-59
2020/12/14 03:55:42;;;;;;;16.40;9.03;;;;;;;3.17;69.00;100617.30;1756429;79;21182;-59
2020/12/14 03:58:10;;;;;;;14.45;7.83;;;;;;;3.08;69.10;100621.16;1768359;79;21345;-59
2020/12/14 04:00:38;;;;;;;12.10;6.72;;;;;;;3.08;69.17;100621.16;1781487;79;21208;-59
2020/12/14 04:03:07;;;;;;;14.35;8.23;;;;;;;3.17;69.02;100614.69;1780801;79;21162;-59
2020/12/14 04:05:34;;;;;;;13.83;6.80;;;;;;;3.24;68.96;100621.75;1775657;79;21152;-59
2020/12/14 04:08:03;;;;;;;12.90;6.87;;;;;;;3.26;69.08;100612.98;1781366;79;21181;-59
2020/12/14 04:10:35;;;;;;;12.47;7.42;;;;;;;3.32;69.12;100610.08;1779242;79;21208;-59
2020/12/14 04:13:03;;;;;;;13.80;7.25;;;;;;;3.35;69.03;100611.72;1778972;79;21169;-59
2020/12/14 04:15:31;;;;;;;17.50;8.78;;;;;;;3.36;68.99;100613.37;1778441;79;21179;-59
2020/12/14 04:17:58;;;;;;;17.57;8.63;;;;;;;3.34;68.96;100613.91;1771733;79;21564;-59
2020/12/14 04:20:26;;;;;;;13.95;8.50;;;;;;;3.31;69.01;100612.75;1779419;79;21665;-59
2020/12/14 04:22:53;;;;;;;15.68;8.35;;;;;;;3.28;69.00;100612.92;1775854;79;23638;-59
2020/12/14 04:25:20;;;;;;;14.30;7.15;;;;;;;3.25;69.05;100613.89;1780804;79;21117;-59
2020/12/14 04:27:48;;;;;;;11.43;7.42;;;;;;;3.21;69.07;100617.99;1782666;79;21633;-59
2020/12/14 04:30:16;;;;;;;12.63;6.60;;;;;;;3.23;69.02;100618.76;1778842;79;21188;-59
2020/12/14 04:32:45;;;;;;;13.55;7.00;;;;;;;3.31;68.80;100616.22;1779649;79;21170;-59
2020/12/14 04:35:12;;;;;;;10.18;6.55;;;;;;;3.40;68.70;100617.55;1783646;79;21363;-59
2020/12/14 04:37:40;;;;;;;15.88;7.50;;;;;;;3.46;68.62;100618.57;1776916;79;21624;-59
2020/12/14 04:40:07;;;;;;;13.90;7.50;;;;;;;3.46;68.54;100625.08;1779914;79;21129;-59
2020/12/14 04:42:35;;;;;;;15.10;8.78;;;;;;;3.43;68.53;100628.25;1776256;79;21213;-59
2020/12/14 04:45:02;;;;;;;15.45;8.13;;;;;;;3.38;68.54;100627.62;1778653;79;21153;-59
2020/12/14 04:47:30;;;;;;;14.65;9.18;;;;;;;3.30;68.70;100631.42;1778625;79;21227;-59
2020/12/14 04:49:57;;;;;;;13.53;7.65;;;;;;;3.27;68.77;100638.53;1764064;80;21706;-59
2020/12/14 04:52:25;;;;;;;14.07;8.05;;;;;;;3.23;68.80;100633.06;1723317;81;21184;-59
2020/12/14 04:54:52;;;;;;;14.68;7.62;;;;;;;3.19;68.87;100644.06;1715098;80;21183;-59
2020/12/14 04:57:22;;;;;;;12.35;6.80;;;;;;;3.12;69.06;100642.19;1746421;80;21172;-59
2020/12/14 04:59:50;;;;;;;14.00;7.12;;;;;;;3.16;69.04;100652.86;1754962;80;21200;-59
2020/12/14 05:02:18;;;;;;;11.83;6.75;;;;;;;3.26;68.83;100649.39;1753800;80;21167;-59
2020/12/14 05:04:47;;;;;;;13.28;6.62;;;;;;;3.34;68.67;100652.47;1754064;81;21644;-59
2020/12/14 05:07:15;;;;;;;14.85;7.70;;;;;;;3.37;68.69;100658.00;1740103;80;21202;-60
2020/12/14 05:09:43;;;;;;;13.60;7.72;;;;;;;3.39;68.65;100657.93;1758812;79;21155;-59
2020/12/14 05:12:18;;;;;;;13.40;7.83;;;;;;;3.38;68.72;100651.89;1747432;81;22104;-59
2020/12/14 05:14:46;;;;;;;13.88;7.42;;;;;;;3.39;68.69;100660.06;1757386;79;21180;-59
2020/12/14 05:17:23;;;;;;;14.43;7.70;;;;;;;3.35;68.70;100658.06;1739904;80;21124;-59
2020/12/14 05:19:52;;;;;;;17.05;8.65;;;;;;;3.34;68.68;100659.44;1756953;79;21214;-59
2020/12/14 05:22:19;;;;;;;13.70;8.53;;;;;;;3.29;68.75;100671.80;1750550;81;21195;-59
2020/12/14 05:24:49;;;;;;;12.33;7.72;;;;;;;3.23;68.78;100668.17;1759770;80;21645;-59
2020/12/14 05:27:32;;;;;;;12.58;6.37;;;;;;;3.18;68.90;100668.83;1751200;81;21187;-59
2020/12/14 05:30:01;;;;;;;11.80;7.85;;;;;;;3.18;68.88;100669.70;1752738;80;21582;-58
2020/12/14 05:32:28;;;;;;;12.23;6.58;;;;;;;3.27;68.76;100673.17;1746114;81;21292;-59
2020/12/14 05:34:56;;;;;;;11.97;6.87;;;;;;;3.35;68.66;100680.17;1754531;80;21175;-58
2020/12/14 05:37:24;;;;;;;12.68;7.60;;;;;;;3.42;68.60;100679.44;1752114;80;21796;-59
2020/12/14 05:39:51;;;;;;;15.03;8.98;;;;;;;3.45;68.53;100678.47;1755086;80;22009;-58
2020/12/14 05:42:20;;;;;;;14.47;8.78;;;;;;;3.45;68.48;100678.47;1750479;81;21641;-59
2020/12/14 05:44:49;;;;;;;15.93;9.08;;;;;;;3.41;68.49;100684.25;1750512;81;21228;-58
2020/12/14 05:47:28;;;;;;;13.18;7.95;;;;;;;3.37;68.58;100684.02;1753604;81;21215;-59
2020/12/14 05:49:59;;;;;;;23.42;9.78;;;;;;;3.34;68.58;100684.14;1763882;80;22302;-60
2020/12/14 05:52:32;;;;;;;15.55;8.85;;;;;;;3.30;68.73;100689.11;1783780;78;21735;-59
2020/12/14 05:55:04;;;;;;;15.25;9.13;;;;;;;3.25;68.79;100692.38;1747914;80;21176;-59
2020/12/14 05:57:34;;;;;;;11.53;6.20;;;;;;;3.19;68.83;100701.73;1787841;78;21664;-60
2020/12/14 06:00:09;;;;;;;13.75;7.35;;;;;;;3.19;68.88;100699.97;1785078;78;21078;-59
2020/12/14 06:02:37;;;;;;;12.75;6.55;;;;;;;3.29;68.76;100708.22;1783620;78;21366;-60
2020/12/14 06:05:06;;;;;;;11.33;7.40;;;;;;;3.37;68.62;100708.72;1782978;78;21176;-60
2020/12/14 06:07:37;;;;;;;11.28;7.22;;;;;;;3.42;68.60;100697.66;1781456;78;21196;-60
2020/12/14 06:10:09;;;;;;;14.03;7.60;;;;;;;3.44;68.50;100700.19;1783102;78;21232;-61
2020/12/14 06:12:41;;;;;;;15.05;7.92;;;;;;;3.39;68.55;100704.29;1783908;78;21264;-61
2020/12/14 06:15:14;;;;;;;16.62;9.35;;;;;;;3.33;68.61;100708.48;1780284;78;21210;-59
2020/12/14 06:17:42;;;;;;;12.82;7.80;;;;;;;3.29;68.63;100710.35;1779974;78;21208;-59
2020/12/14 06:20:20;;;;;;;12.80;8.03;;;;;;;3.23;68.74;100722.34;1781046;78;21633;-59
2020/12/14 06:23:04;;;;;;;19.05;8.25;;;;;;;3.21;68.92;100725.91;1782605;78;21642;-59
2020/12/14 06:25:31;;;;;;;12.88;8.20;;;;;;;3.15;69.03;100727.04;1778964;78;21232;-58
2020/12/14 06:28:32;;;;;;;18.52;8.90;;;;;;;3.12;69.07;100731.06;1774616;78;22595;-58
2020/12/14 06:31:00;;;;;;;12.10;7.22;;;;;;;3.15;69.04;100728.34;1717591;81;22145;-58
2020/12/14 06:33:40;;;;;;;13.78;6.70;;;;;;;3.27;68.77;100730.39;1717535;81;21885;-59
2020/12/14 06:36:20;;;;;;;12.73;7.45;;;;;;;3.34;68.65;100734.41;1753572;78;21233;-59
2020/12/14 06:38:49;;;;;;;14.95;8.25;;;;;;;3.38;68.63;100728.63;1773922;78;21687;-58
2020/12/14 06:41:20;;;;;;;13.13;7.40;;;;;;;3.43;68.70;100732.30;1784780;78;21397;-58
2020/12/14 06:44:03;;;;;;;14.93;8.98;;;;;;;3.46;68.64;100731.73;1778573;80;21202;-58
2020/12/14 06:46:32;;;;;;;14.45;9.28;;;;;;;3.51;68.59;100733.67;1781922;78;21184;-59
2020/12/14 06:49:01;;;;;;;12.80;7.00;;;;;;;3.52;68.46;100722.80;1780662;78;21303;-59
2020/12/14 06:51:52;;;;;;;14.05;8.20;;;;;;;3.49;68.39;100719.03;1782333;78;21256;-58
2020/12/14 06:54:42;;;;;;;13.58;8.53;;;;;;;3.46;68.40;100723.94;1784483;78;22699;-58
2020/12/14 06:57:17;;;;;;;15.25;8.30;;;;;;;3.40;68.41;100715.56;1784318;78;21226;-58
2020/12/14 06:59:53;;;;;;;15.00;7.97;;;;;;;3.33;68.48;100716.30;1775801;78;21543;-58
2020/12/14 07:02:37;;;;;;;13.70;7.90;;;;;;;3.34;68.39;100708.85;1751278;80;21425;-69
2020/12/14 07:05:32;;;;;;;12.98;7.35;;;;;;;3.42;68.18;100708.06;1776743;79;21133;-69
2020/12/14 07:08:00;;;;;;;11.15;6.25;;;;;;;3.44;68.31;100706.22;1768775;79;21405;-68
2020/12/14 07:10:30;;;;;;;15.08;7.17;;;;;;;3.49;68.27;100714.66;1782971;78;21145;-73
2020/12/14 07:12:59;;;;;;;13.08;8.00;;;;;;;3.50;68.33;100720.73;1784580;78;21136;-70
2020/12/14 07:15:33;;;;;;;12.25;6.85;;;;;;;3.51;68.35;100714.59;1778362;78;22336;-71
2020/12/14 07:18:11;;;;;;;13.20;7.80;;;;;;;3.51;68.35;100716.77;1782086;78;21185;-71
2020/12/14 07:23:36;;;;;;;14.05;8.10;;;;;;;3.54;68.37;100709.27;1805353;77;22775;-56
2020/12/14 07:26:03;;;;;;;14.03;8.78;;;;;;;3.48;68.34;100714.30;1793935;78;21179;-55
2020/12/14 07:28:40;;;;;;;14.53;8.43;;;;;;;3.43;68.40;100719.30;1793779;78;23962;-57
2020/12/14 07:31:11;;;;;;;13.60;7.37;;;;;;;3.40;68.56;100724.66;1798668;78;21403;-55
2020/12/14 07:33:39;;;;;;;10.63;7.00;;;;;;;3.45;68.49;100730.04;1795283;78;21211;-55
2020/12/14 07:36:09;;;;;;;13.25;7.03;;;;;;;3.56;68.31;100733.45;1794569;78;21543;-69
2020/12/14 07:38:48;;;;;;;12.53;7.12;;;;;;;3.65;68.20;100737.41;1795665;78;22036;-70
2020/12/14 07:41:16;;;;;;;17.23;7.97;;;;;;;3.69;67.99;100748.06;1798172;78;21564;-73
2020/12/14 07:43:55;;;;;;;13.32;6.92;;;;;;;3.65;68.11;100745.22;1792358;78;21567;-69
2020/12/14 07:46:31;;;;;;;16.97;7.65;;;;;;;3.61;68.09;100752.30;1803688;78;21183;-70
2020/12/14 07:49:07;;;;;;;14.83;7.28;;;;;;;3.60;68.18;100760.17;1790367;78;21225;-68
2020/12/14 07:51:42;;;;;;;15.68;8.15;;;;;;;3.60;68.23;100758.87;1803811;78;21679;-67
2020/12/14 07:54:18;;;;;;;14.00;7.47;;;;;;;3.58;68.22;100763.30;1799075;78;22104;-68
2020/12/14 07:56:59;;;;;;;11.97;7.97;;;;;;;3.52;68.23;100765.27;1796180;78;21187;-70
2020/12/14 07:59:30;;;;;;;13.53;7.70;;;;;;;3.45;68.28;100771.66;1800559;78;21175;-70
2020/12/14 08:01:59;;;;;;;13.88;7.83;;;;;;;3.39;68.37;100773.22;1797948;78;21154;-57
2020/12/14 08:04:32;;;;;;;12.25;7.55;;;;;;;3.43;68.40;100777.83;1792110;78;21175;-56
2020/12/14 08:07:00;;;;;;;9.30;6.10;;;;;;;3.54;68.20;100769.94;1794355;78;23528;-56
2020/12/14 08:12:46;;;;;;;13.03;7.47;;;;;;;3.77;67.95;100758.97;1831590;76;22505;-56
2020/12/14 08:15:17;;;;;;;13.83;7.53;;;;;;;3.70;67.84;100768.81;1800067;79;21194;-57
2020/12/14 08:17:45;;;;;;;12.40;6.92;;;;;;;3.58;67.93;100756.80;1797812;77;21721;-57
2020/12/14 08:20:31;;;;;;;11.63;7.28;;;;;;;3.46;68.21;100760.36;1790457;79;21575;-58
2020/12/14 08:23:01;;;;;;;16.00;8.18;;;;;;;3.36;68.62;100751.24;1802245;79;21496;-55
2020/12/14 08:25:31;;;;;;;14.05;7.90;;;;;;;3.28;69.34;100752.90;1792021;79;21597;-55
2020/12/14 08:28:02;;;;;;;11.08;7.03;;;;;;;3.24;69.37;100754.39;1802545;79;21547;-55
2020/12/14 08:30:31;;;;;;;11.05;6.67;;;;;;;3.26;69.31;100756.03;1791735;78;21456;-55
2020/12/14 08:33:16;;;;;;;13.88;6.30;;;;;;;3.35;69.30;100745.67;1797814;79;21606;-56
2020/12/14 08:35:46;;;;;;;13.60;7.75;;;;;;;3.41;69.14;100740.17;1813303;79;21168;-57
2020/12/14 08:38:20;;;;;;;10.25;6.35;;;;;;;3.39;69.27;100741.17;1805863;79;21610;-57
2020/12/14 08:40:56;;;;;;;10.75;6.90;;;;;;;3.40;69.44;100741.11;1786760;79;21383;-57
2020/12/14 08:43:34;;;;;;;13.83;9.05;;;;;;;3.47;69.45;100741.22;1831859;76;22700;-57
2020/12/14 08:46:14;;;;;;;12.05;7.10;;;;;;;3.45;69.34;100734.41;1793603;77;21152;-56
2020/12/14 08:48:50;;;;;;;15.40;8.08;;;;;;;3.41;69.55;100737.58;1794120;77;22528;-56
2020/12/14 08:51:32;;;;;;;11.20;6.97;;;;;;;3.40;69.46;100745.02;1795035;79;21606;-56
2020/12/14 08:54:14;;;;;;;12.60;7.80;;;;;;;3.35;69.59;100740.47;1798689;77;21175;-57
2020/12/14 08:56:41;;;;;;;14.18;6.72;;;;;;;3.39;69.37;100740.70;1804581;79;21195;-55
2020/12/14 09:00:42;;;;;;;13.75;6.37;;;;;;;3.62;69.11;100747.49;1790772;77;21878;-72
2020/12/14 09:04:06;;;;;;;13.35;7.70;;;;;;;3.68;68.92;100741.15;1756285;78;22048;-72
2020/12/14 09:06:39;;;;;;;14.35;7.72;;;;;;;3.67;68.85;100746.82;1736612;82;21169;-71
2020/12/14 09:09:16;;;;;;;13.70;7.50;;;;;;;3.66;68.73;100748.19;1707632;82;21200;-72
2020/12/14 09:11:49;;;;;;;11.78;6.62;;;;;;;3.64;68.91;100753.93;1719336;82;21180;-72
2020/12/14 09:14:27;;;;;;;12.93;7.58;;;;;;;3.62;68.92;100747.49;1722209;82;21196;-73
2020/12/14 09:19:36;;;;;;;15.60;7.47;;;;;;;3.61;68.99;100734.55;1812382;79;22201;-56
2020/12/14 09:22:03;;;;;;;13.03;6.22;;;;;;;3.55;68.72;100742.19;1770109;80;21120;-55
2020/12/14 09:24:33;;;;;;;11.43;6.60;;;;;;;3.56;68.85;100729.55;1774555;79;21368;-56
2020/12/14 09:27:09;;;;;;;12.55;6.70;;;;;;;3.67;68.71;100730.38;1747296;80;21231;-56
2020/12/14 09:29:38;;;;;;;15.83;8.08;;;;;;;3.78;68.63;100731.17;1709353;82;21172;-57
2020/12/14 09:32:06;;;;;;;13.08;7.17;;;;;;;3.85;68.63;100732.56;1744518;80;21654;-56
2020/12/14 09:34:34;;;;;;;12.93;7.80;;;;;;;3.85;68.68;100732.56;1719736;82;21136;-56
2020/12/14 09:37:01;;;;;;;13.43;6.75;;;;;;;3.87;68.46;100734.20;1712720;81;23603;-57
2020/12/14 09:39:30;;;;;;;14.43;7.22;;;;;;;3.89;68.39;100732.83;1707153;81;21196;-56
2020/12/14 09:41:58;;;;;;;11.12;6.42;;;;;;;3.90;68.33;100739.27;1705930;82;21187;-57
2020/12/14 09:44:27;;;;;;;14.98;8.45;;;;;;;3.87;68.39;100738.10;1715904;81;21173;-57
2020/12/14 09:46:54;;;;;;;13.65;8.08;;;;;;;3.83;68.49;100738.31;1709288;81;21136;-57
2020/12/14 09:49:22;;;;;;;14.40;8.20;;;;;;;3.78;68.45;100738.98;1724037;82;21207;-57
2020/12/14 09:51:50;;;;;;;10.50;5.92;;;;;;;3.70;68.55;100738.05;1720033;82;21515;-56
2020/12/14 09:54:17;;;;;;;12.13;6.67;;;;;;;3.72;68.54;100744.86;1713100;81;21212;-56
2020/12/14 09:56:45;;;;;;;10.25;6.05;;;;;;;3.86;68.27;100749.89;1744424;81;21207;-57
2020/12/14 09:59:13;;;;;;;12.23;6.42;;;;;;;3.95;68.12;100748.61;1706503;83;21623;-56
2020/12/14 10:01:40;;;;;;;13.00;7.40;;;;;;;3.99;67.98;100751.47;1738391;80;21938;-56
2020/12/14 10:04:08;;;;;;;13.10;8.60;;;;;;;3.97;68.05;100746.34;1745217;80;21199;-56
2020/12/14 10:06:36;;;;;;;13.10;7.53;;;;;;;3.96;68.00;100744.63;1743465;81;21604;-57
2020/12/14 10:09:11;;;;;;;13.85;8.18;;;;;;;3.95;67.99;100749.91;1743008;80;21161;-57
2020/12/14 10:11:39;;;;;;;15.53;8.65;;;;;;;3.90;67.99;100749.68;1737607;81;21192;-56
2020/12/14 10:14:07;;;;;;;14.18;8.43;;;;;;;3.88;68.03;100751.95;1737847;81;22108;-55
2020/12/14 10:16:36;;;;;;;14.80;8.63;;;;;;;3.84;68.12;100748.66;1742481;80;22632;-55
2020/12/14 10:19:05;;;;;;;14.18;8.15;;;;;;;3.83;68.17;100745.68;1705841;81;21185;-55
2020/12/14 10:21:33;;;;;;;14.18;8.88;;;;;;;3.83;68.04;100748.28;1718426;81;21137;-56
2020/12/14 10:24:00;;;;;;;14.63;8.45;;;;;;;3.82;67.91;100748.35;1698647;83;21578;-55
2020/12/14 10:26:29;;;;;;;14.25;7.45;;;;;;;3.86;67.75;100739.47;1758009;80;22300;-55
2020/12/14 10:28:57;;;;;;;12.90;7.17;;;;;;;3.97;67.29;100738.95;1750992;80;21184;-55
2020/12/14 10:31:25;;;;;;;17.82;5.60;;;;;;;3.98;67.14;100742.80;1693944;83;21623;-55
2020/12/14 10:34:14;;;;;;;14.25;7.00;;;;;;;3.97;67.51;100750.67;1700240;82;21169;-57
2020/12/14 10:36:46;;;;;;;12.78;6.33;;;;;;;3.93;67.60;100747.84;1629987;86;21241;-56
2020/12/14 10:39:13;;;;;;;12.13;6.42;;;;;;;3.86;67.59;100740.77;1633553;86;22106;-55
2020/12/14 10:41:41;;;;;;;11.30;6.40;;;;;;;3.73;67.72;100741.78;1630823;86;21252;-55
2020/12/14 10:44:08;;;;;;;12.82;7.10;;;;;;;3.63;67.86;100745.29;1627607;86;21251;-54
2020/12/14 10:46:36;;;;;;;13.70;7.28;;;;;;;3.52;68.08;100742.31;1636612;86;21660;-54
2020/12/14 10:49:04;;;;;;;11.38;6.47;;;;;;;3.43;68.28;100751.38;1637244;86;21221;-54
2020/12/14 10:51:32;;;;;;;14.98;7.17;;;;;;;3.38;68.41;100749.88;1632607;86;22256;-54
2020/12/14 10:53:59;;;;;;;9.85;5.80;;;;;;;3.41;68.46;100741.95;1630394;86;21171;-54
2020/12/14 10:56:27;;;;;;;11.70;6.45;;;;;;;3.48;68.32;100745.95;1637822;86;21157;-55
2020/12/14 10:58:56;;;;;;;12.50;5.53;;;;;;;3.49;68.37;100751.55;1628139;86;21695;-54
2020/12/14 11:01:24;;;;;;;12.43;7.25;;;;;;;3.50;68.36;100750.66;1633903;86;21617;-56
2020/12/14 11:03:51;;;;;;;11.38;6.37;;;;;;;3.46;68.42;100752.98;1634216;86;22791;-56
2020/12/14 11:06:19;;;;;;;13.08;7.25;;;;;;;3.40;68.56;100753.28;1635249;86;21217;-57
2020/12/14 11:08:46;;;;;;;12.93;7.67;;;;;;;3.37;68.72;100759.45;1632952;86;21224;-57
2020/12/14 11:11:14;;;;;;;11.25;6.37;;;;;;;3.38;68.95;100748.14;1633062;86;21197;-57
2020/12/14 11:13:42;;;;;;;14.40;7.45;;;;;;;3.39;68.95;100752.41;1593277;87;21635;-57
2020/12/14 11:16:10;;;;;;;11.83;6.75;;;;;;;3.41;68.97;100753.19;1639151;86;21339;-57
2020/12/14 11:18:39;;;;;;;12.73;6.53;;;;;;;3.44;68.93;100750.92;1631284;85;21208;-56
2020/12/14 11:21:08;;;;;;;11.35;6.70;;;;;;;3.51;68.78;100753.19;1599220;88;21209;-57
2020/12/14 11:23:36;;;;;;;12.37;6.83;;;;;;;3.65;68.42;100749.95;1609070;87;21672;-58
2020/12/14 11:26:04;;;;;;;10.78;6.67;;;;;;;3.74;68.10;100746.55;1602031;88;21216;-57
2020/12/14 11:28:32;;;;;;;13.65;7.42;;;;;;;3.76;67.97;100742.12;1631896;86;21389;-57
2020/12/14 11:31:01;;;;;;;12.30;6.97;;;;;;;3.70;68.01;100732.84;1611502;87;21699;-57
2020/12/14 11:33:29;;;;;;;12.13;6.67;;;;;;;3.64;68.16;100743.05;1627980;86;21231;-56
2020/12/14 11:35:56;;;;;;;12.60;7.10;;;;;;;3.59;68.39;100741.59;1634440;86;21223;-57
2020/12/14 11:38:24;;;;;;;12.90;7.28;;;;;;;3.56;68.52;100749.06;1629544;86;21273;-57
2020/12/14 11:40:51;;;;;;;14.07;8.15;;;;;;;3.57;68.45;100757.73;1602553;87;22345;-57
2020/12/14 11:43:19;;;;;;;16.35;8.85;;;;;;;3.47;68.51;100756.83;1585519;89;21086;-58
2020/12/14 11:45:47;;;;;;;11.78;7.05;;;;;;;3.39;68.56;100756.31;1632580;86;22345;-58
2020/12/14 11:48:15;;;;;;;11.48;6.58;;;;;;;3.37;68.59;100750.34;1630896;86;21194;-57